templateexpress.com alexa rank chart, templateexpress.com alexa rank daily changes

templateexpress.com alexa rank chart, templateexpress.com alexa rank daily changes

templateexpress.com
Actual rank:
407 022

RANK HISTORY

Date Rank Diff
2017/12/11 407 022 +837
2017/12/10 406 185 -4 883
2017/12/09 411 068 +6 424
2017/12/08 404 644 +529
2017/12/07 404 115 -10 170
2017/12/06 414 285 -1 592
2017/12/05 415 877 +548
2017/12/04 415 329 -12 732
2017/12/03 428 061 -5 236
2017/12/02 433 297 -17 566
2017/12/01 450 863 -489
2017/11/30 451 352 -7 628
2017/11/29 458 980 -37 319
2017/11/28 496 299 +22 326
2017/11/27 473 973 -1 795
2017/11/26 475 768 -13 741
2017/11/25 489 509 +7 309
2017/11/24 482 200 -5 672
2017/11/23 487 872 +4 523
2017/11/22 483 349 -179
2017/11/21 483 528 +44 227
2017/11/20 439 301 -13 752
2017/11/19 453 053 -8 446
2017/11/18 461 499 +36 616
2017/11/17 424 883 +1 460
2017/11/16 423 423 +8 672
2017/11/15 414 751 -206
2017/11/14 414 957 +4 819
2017/11/13 410 138 +1 000
2017/11/12 409 138 +20 091
2017/11/11 389 047 +1 384
2017/11/10 387 663 +2 235
2017/11/09 385 428 +7 655
2017/11/08 377 773 +22 722
2017/11/07 355 051 +1 742
2017/11/06 353 309 -2 898
2017/11/05 356 207 -5 193
2017/11/04 361 400 +8 214
2017/11/03 353 186 +31 024
2017/11/02 322 162 +4 217
2017/11/01 317 945 +7 595
2017/10/31 310 350 -5 085
2017/10/30 315 435 +10 440
2017/10/29 304 995 +1 599
2017/10/28 303 396 -3 958
2017/10/27 307 354 +11 713
2017/10/26 295 641 -656
2017/10/25 296 297 +884
2017/10/24 295 413 -803
2017/10/23 296 216 -1 499
2017/10/22 297 715 -4 647
2017/10/21 302 362 -16 433
2017/10/20 318 795 +39
2017/10/19 318 756 -5 198
2017/10/18 323 954 -15 652
2017/10/17 339 606 +2 768
2017/10/16 336 838 -12 396
2017/10/14 349 234 -9 326
2017/10/13 358 560 +3 461
2017/10/12 355 099

WIDGET FOR YOUR SITE

DOMAINS WITH THE NEAREST RANK

Domain Rank
goldenpages.be 407 017
zipraronline.com 407 018
crossjoin.co.uk 407 019
datenbank-bildungsmedien.net 407 020
novopro.cn 407 021
templateexpress.com 407 022
dibujosimprimir.com 407 023
isohunt.tv 407 024
permissionresearch.com 407 025
vendora.gr 407 026
hihostels.ca 407 027

DOMAINS WITH THE NEAREST RANK BY TLD .com

Domain Rank
moonrok.com 407 009
topcelebritygist.com 407 012
12break.com 407 014
shredit.com 407 016
zipraronline.com 407 018
templateexpress.com 407 022
dibujosimprimir.com 407 023
permissionresearch.com 407 025
saltandwind.com 407 028
anagrama.com 407 029
xn--hhro09bn9j8uh.com 407 031